Time;durP1;ratioP1;P1;durP2;ratioP2;P2;SDS_P1;SDS_P2;PMS_P1;PMS_P2;Temp;Humidity;BMP_temperature;BMP_pressure;BME280_temperature;BME280_humidity;BME280_pressure;Samples;Min_cycle;Max_cycle;Signal;HPM_P1;HPM_P2
2022/04/07 00:02:00;;;;;;;8.68;5.30;;;;;;;;;;1719756;83;21156;-69
2022/04/07 00:04:27;;;;;;;10.40;5.97;;;;;;;;;;1719675;82;21107;-69
2022/04/07 00:06:54;;;;;;;8.43;5.03;;;;;;;;;;1719877;83;21088;-69
2022/04/07 00:09:20;;;;;;;11.68;7.00;;;;;;;;;;1719737;83;21063;-69
2022/04/07 00:11:46;;;;;;;8.40;5.87;;;;;;;;;;1719996;83;21111;-69
2022/04/07 00:14:13;;;;;;;9.20;5.58;;;;;;;;;;1719787;83;21120;-70
2022/04/07 00:16:40;;;;;;;8.10;4.90;;;;;;;;;;1719596;83;21119;-70
2022/04/07 00:19:09;;;;;;;10.03;5.37;;;;;;;;;;1719616;83;21044;-70
2022/04/07 00:21:38;;;;;;;9.05;4.72;;;;;;;;;;1719798;83;21044;-70
2022/04/07 00:24:05;;;;;;;10.48;5.95;;;;;;;;;;1719927;83;21044;-69
2022/04/07 00:26:31;;;;;;;8.00;4.92;;;;;;;;;;1719802;83;21028;-69
2022/04/07 00:28:58;;;;;;;8.73;5.30;;;;;;;;;;1719855;83;21095;-69
2022/04/07 00:31:24;;;;;;;8.83;5.22;;;;;;;;;;1720016;83;21028;-68
2022/04/07 00:33:52;;;;;;;7.55;4.92;;;;;;;;;;1719621;83;21104;-69
2022/04/07 00:36:18;;;;;;;9.78;6.25;;;;;;;;;;1719996;83;21028;-69
2022/04/07 00:38:46;;;;;;;9.00;4.78;;;;;;;;;;1719364;83;21099;-69
2022/04/07 00:41:13;;;;;;;9.78;5.92;;;;;;;;;;1719773;83;21044;-70
2022/04/07 00:43:39;;;;;;;10.23;5.20;;;;;;;;;;1719700;83;21083;-69
2022/04/07 00:46:06;;;;;;;7.67;4.78;;;;;;;;;;1720360;83;21511;-69
2022/04/07 00:48:35;;;;;;;7.72;5.20;;;;;;;;;;1719899;83;21076;-69
2022/04/07 00:51:00;;;;;;;10.50;5.85;;;;;;;;;;1719818;83;21068;-69
2022/04/07 00:53:27;;;;;;;13.38;5.60;;;;;;;;;;1720285;83;21092;-70
2022/04/07 00:56:00;;;;;;;9.23;5.85;;;;;;;;;;1719811;83;21091;-69
2022/04/07 00:58:23;;;;;;;11.90;6.33;;;;;;;;;;1719341;83;21639;-70
2022/04/07 01:03:38;;;;;;;12.00;5.83;;;;;;;;;;1709436;79;21166;-71
2022/04/07 01:06:05;;;;;;;12.13;6.15;;;;;;;;;;1725716;82;21023;-70
2022/04/07 01:08:31;;;;;;;13.15;7.70;;;;;;;;;;1738921;82;21036;-70
2022/04/07 01:10:59;;;;;;;15.20;8.18;;;;;;;;;;1738951;82;21166;-71
2022/04/07 01:13:42;;;;;;;20.95;9.43;;;;;;;;;;1738851;82;21071;-70
2022/04/07 01:16:09;;;;;;;20.52;9.50;;;;;;;;;;1739251;82;21031;-71
2022/04/07 01:18:38;;;;;;;22.42;9.78;;;;;;;;;;1738849;82;21060;-70
2022/04/07 01:21:06;;;;;;;20.92;9.23;;;;;;;;;;1739038;82;21076;-71
2022/04/07 01:23:34;;;;;;;16.27;7.55;;;;;;;;;;1739045;82;21538;-70
2022/04/07 01:26:03;;;;;;;11.90;6.65;;;;;;;;;;1739199;82;21106;-69
2022/04/07 01:28:29;;;;;;;10.95;5.70;;;;;;;;;;1712061;82;21012;-68
2022/04/07 01:30:56;;;;;;;9.50;5.25;;;;;;;;;;1739197;82;21040;-68
2022/04/07 01:33:22;;;;;;;9.55;5.37;;;;;;;;;;1739225;82;21043;-68
2022/04/07 01:35:49;;;;;;;9.28;4.40;;;;;;;;;;1738960;82;21004;-68
2022/04/07 01:38:16;;;;;;;9.45;5.40;;;;;;;;;;1739030;82;21079;-68
2022/04/07 01:40:43;;;;;;;8.83;5.35;;;;;;;;;;1739341;82;21098;-68
2022/04/07 01:43:09;;;;;;;9.08;5.17;;;;;;;;;;1739092;82;21019;-69
2022/04/07 01:45:36;;;;;;;8.73;5.55;;;;;;;;;;1739258;82;21067;-69
2022/04/07 01:48:03;;;;;;;9.30;5.33;;;;;;;;;;1739002;82;21027;-69
2022/04/07 01:50:31;;;;;;;9.30;4.97;;;;;;;;;;1738894;82;21060;-68
2022/04/07 01:52:57;;;;;;;7.72;5.22;;;;;;;;;;1739438;82;21506;-68
2022/04/07 01:55:25;;;;;;;8.43;5.05;;;;;;;;;;1738935;82;21071;-69
2022/04/07 01:57:52;;;;;;;9.58;4.67;;;;;;;;;;1739268;82;21016;-71
2022/04/07 02:00:19;;;;;;;9.93;5.60;;;;;;;;;;1739012;82;21145;-70
2022/04/07 02:02:45;;;;;;;11.60;5.97;;;;;;;;;;1738981;81;21087;-69
2022/04/07 02:05:12;;;;;;;14.73;6.90;;;;;;;;;;1731716;82;21076;-69
2022/04/07 02:07:39;;;;;;;16.45;7.35;;;;;;;;;;1730735;83;21039;-69
2022/04/07 02:10:08;;;;;;;18.87;8.35;;;;;;;;;;1730549;83;21235;-69
2022/04/07 02:12:37;;;;;;;15.48;6.70;;;;;;;;;;1731075;83;21075;-68
2022/04/07 02:15:04;;;;;;;12.43;6.25;;;;;;;;;;1730861;83;21036;-68
2022/04/07 02:17:32;;;;;;;10.65;5.33;;;;;;;;;;1730854;83;21555;-69
2022/04/07 02:19:59;;;;;;;9.30;4.97;;;;;;;;;;1730500;83;21065;-68
2022/04/07 02:22:28;;;;;;;11.20;5.60;;;;;;;;;;1730528;82;21071;-68
2022/04/07 02:24:54;;;;;;;8.50;5.47;;;;;;;;;;1730696;83;21111;-68
2022/04/07 02:27:21;;;;;;;8.98;5.75;;;;;;;;;;1730592;83;21566;-68
2022/04/07 02:29:47;;;;;;;10.65;5.97;;;;;;;;;;1730580;83;21048;-68
2022/04/07 02:32:13;;;;;;;10.80;6.05;;;;;;;;;;1730626;83;21048;-68
2022/04/07 02:34:45;;;;;;;8.85;5.42;;;;;;;;;;1730767;83;21060;-69
2022/04/07 02:37:08;;;;;;;6.28;4.25;;;;;;;;;;1728915;82;21032;-68
2022/04/07 02:39:36;;;;;;;12.50;5.75;;;;;;;;;;1730832;82;21075;-68
2022/04/07 02:42:03;;;;;;;10.28;5.83;;;;;;;;;;1730901;83;21063;-68
2022/04/07 02:44:30;;;;;;;8.10;5.17;;;;;;;;;;1730621;82;21567;-68
2022/04/07 02:46:57;;;;;;;11.12;5.10;;;;;;;;;;1730834;82;21500;-68
2022/04/07 02:49:24;;;;;;;11.53;6.12;;;;;;;;;;1730749;82;21099;-68
2022/04/07 02:51:50;;;;;;;10.53;6.05;;;;;;;;;;1730783;83;21068;-68
2022/04/07 02:54:17;;;;;;;9.93;5.58;;;;;;;;;;1730705;83;21052;-68
2022/04/07 02:56:44;;;;;;;10.32;6.47;;;;;;;;;;1730962;83;21063;-68
2022/04/07 02:59:11;;;;;;;9.85;5.22;;;;;;;;;;1730565;83;21076;-68
2022/04/07 03:01:38;;;;;;;9.13;5.55;;;;;;;;;;1730370;83;21083;-68
2022/04/07 03:04:04;;;;;;;9.35;5.33;;;;;;;;;;1730457;81;21068;-68
2022/04/07 03:06:32;;;;;;;9.75;6.05;;;;;;;;;;1730513;83;21059;-70
2022/04/07 03:08:59;;;;;;;10.10;5.72;;;;;;;;;;1730844;83;21048;-70
2022/04/07 03:11:27;;;;;;;14.05;7.60;;;;;;;;;;1730502;83;21092;-68
2022/04/07 03:13:53;;;;;;;14.45;7.42;;;;;;;;;;1730569;83;21055;-68
2022/04/07 03:16:19;;;;;;;12.43;6.55;;;;;;;;;;1730885;83;21056;-68
2022/04/07 03:18:47;;;;;;;8.85;5.55;;;;;;;;;;1730432;83;21079;-68
2022/04/07 03:21:13;;;;;;;12.03;6.20;;;;;;;;;;1730894;83;21068;-68
2022/04/07 03:23:41;;;;;;;11.85;6.62;;;;;;;;;;1730644;83;21052;-68
2022/04/07 03:26:07;;;;;;;11.48;6.17;;;;;;;;;;1730708;83;21036;-69
2022/04/07 03:28:33;;;;;;;8.55;5.50;;;;;;;;;;1730801;83;21052;-68
2022/04/07 03:30:59;;;;;;;10.53;5.80;;;;;;;;;;1730877;83;21067;-69
2022/04/07 03:33:27;;;;;;;10.05;6.10;;;;;;;;;;1731022;83;20996;-70
2022/04/07 03:35:54;;;;;;;9.40;5.85;;;;;;;;;;1730755;83;21051;-70
2022/04/07 03:38:20;;;;;;;7.60;5.47;;;;;;;;;;1730495;83;21044;-71
2022/04/07 03:40:46;;;;;;;12.00;6.25;;;;;;;;;;1730786;83;21071;-71
2022/04/07 03:43:12;;;;;;;12.60;7.17;;;;;;;;;;1730654;83;21027;-70
2022/04/07 03:45:40;;;;;;;12.23;7.03;;;;;;;;;;1730606;82;21012;-70
2022/04/07 03:48:07;;;;;;;12.37;6.62;;;;;;;;;;1730720;83;21104;-69
2022/04/07 03:50:33;;;;;;;9.85;5.85;;;;;;;;;;1730742;83;21024;-69
2022/04/07 03:53:00;;;;;;;11.10;5.95;;;;;;;;;;1730793;83;21087;-69
2022/04/07 03:55:28;;;;;;;14.60;5.97;;;;;;;;;;1730223;82;21071;-70
2022/04/07 03:57:55;;;;;;;9.23;6.03;;;;;;;;;;1730642;83;21095;-69
2022/04/07 04:00:22;;;;;;;11.45;6.97;;;;;;;;;;1730527;83;21012;-70
2022/04/07 04:02:50;;;;;;;10.00;6.22;;;;;;;;;;1730339;81;21099;-69
2022/04/07 04:05:18;;;;;;;11.57;6.60;;;;;;;;;;1729680;82;21061;-70
2022/04/07 04:07:44;;;;;;;14.03;6.70;;;;;;;;;;1729221;83;21081;-71
2022/04/07 04:10:11;;;;;;;16.82;9.60;;;;;;;;;;1694633;85;21100;-70
2022/04/07 04:12:38;;;;;;;11.63;6.33;;;;;;;;;;1694508;85;21046;-70
2022/04/07 04:15:05;;;;;;;13.88;7.17;;;;;;;;;;1694677;85;21088;-70
2022/04/07 04:17:31;;;;;;;10.35;6.50;;;;;;;;;;1677063;85;21092;-71
2022/04/07 04:19:58;;;;;;;9.63;6.35;;;;;;;;;;1676721;85;21081;-71
2022/04/07 04:22:24;;;;;;;12.13;6.85;;;;;;;;;;1677185;85;21042;-72
2022/04/07 04:24:51;;;;;;;12.37;6.95;;;;;;;;;;1676779;85;21089;-70
2022/04/07 04:27:17;;;;;;;9.43;6.28;;;;;;;;;;1677259;85;21088;-71
2022/04/07 04:29:45;;;;;;;11.00;6.92;;;;;;;;;;1694241;85;21086;-70
2022/04/07 04:32:12;;;;;;;11.95;8.28;;;;;;;;;;1694632;85;21064;-70
2022/04/07 04:34:38;;;;;;;12.28;7.90;;;;;;;;;;1677029;85;21608;-69
2022/04/07 04:37:04;;;;;;;10.13;6.70;;;;;;;;;;1677016;85;21541;-69
2022/04/07 04:39:31;;;;;;;11.68;7.50;;;;;;;;;;1676974;85;21116;-70
2022/04/07 04:41:57;;;;;;;11.45;7.92;;;;;;;;;;1677111;85;21561;-70
2022/04/07 04:44:23;;;;;;;10.58;7.17;;;;;;;;;;1677265;85;21627;-70
2022/04/07 04:46:50;;;;;;;10.90;7.05;;;;;;;;;;1677073;85;21584;-70
2022/04/07 04:49:18;;;;;;;10.98;7.33;;;;;;;;;;1676863;84;21138;-70
2022/04/07 04:51:45;;;;;;;11.73;7.08;;;;;;;;;;1677187;85;21065;-69
2022/04/07 04:54:13;;;;;;;9.90;6.47;;;;;;;;;;1676885;85;21065;-71
2022/04/07 04:56:40;;;;;;;11.10;6.92;;;;;;;;;;1677135;85;21058;-71
2022/04/07 04:59:09;;;;;;;11.90;7.00;;;;;;;;;;1676706;84;21070;-71
2022/04/07 05:01:35;;;;;;;10.60;6.92;;;;;;;;;;1677438;85;21065;-71
2022/04/07 05:04:01;;;;;;;10.05;7.17;;;;;;;;;;1676981;84;21109;-71
2022/04/07 05:06:28;;;;;;;9.88;7.15;;;;;;;;;;1677261;85;21081;-71
2022/04/07 05:08:54;;;;;;;11.43;7.62;;;;;;;;;;1677389;85;21093;-71
2022/04/07 05:11:20;;;;;;;9.85;6.62;;;;;;;;;;1677152;85;21140;-71
2022/04/07 05:13:48;;;;;;;9.80;7.03;;;;;;;;;;1676874;85;22157;-71
2022/04/07 05:16:15;;;;;;;10.93;7.28;;;;;;;;;;1677116;85;21061;-71
2022/04/07 05:18:46;;;;;;;11.43;6.97;;;;;;;;;;1677107;85;21112;-71
2022/04/07 05:21:10;;;;;;;9.63;6.55;;;;;;;;;;1677227;84;21053;-71
2022/04/07 05:23:36;;;;;;;11.95;8.15;;;;;;;;;;1677242;85;21098;-71
2022/04/07 05:26:03;;;;;;;10.53;7.20;;;;;;;;;;1677305;85;21069;-71
2022/04/07 05:28:29;;;;;;;10.38;7.15;;;;;;;;;;1677153;85;21521;-71
2022/04/07 05:30:56;;;;;;;10.93;6.78;;;;;;;;;;1677255;85;21125;-71
2022/04/07 05:33:22;;;;;;;11.55;7.15;;;;;;;;;;1677070;85;21092;-70
2022/04/07 05:35:49;;;;;;;11.30;7.35;;;;;;;;;;1677029;85;21584;-70
2022/04/07 05:38:15;;;;;;;9.68;7.20;;;;;;;;;;1677169;85;21092;-70
2022/04/07 05:40:43;;;;;;;10.65;6.80;;;;;;;;;;1677099;85;21101;-70
2022/04/07 05:43:09;;;;;;;9.78;7.17;;;;;;;;;;1692554;85;21096;-70
2022/04/07 05:45:38;;;;;;;8.98;6.97;;;;;;;;;;1676979;85;21076;-71
2022/04/07 05:48:04;;;;;;;8.85;6.55;;;;;;;;;;1677131;84;21148;-70
2022/04/07 05:50:30;;;;;;;7.15;5.75;;;;;;;;;;1692486;85;21085;-71
2022/04/07 05:52:57;;;;;;;8.85;5.87;;;;;;;;;;1677202;85;21120;-71
2022/04/07 05:55:23;;;;;;;9.75;6.78;;;;;;;;;;1677149;85;21057;-71
2022/04/07 05:57:50;;;;;;;8.60;6.05;;;;;;;;;;1677023;85;21125;-71
2022/04/07 06:00:19;;;;;;;7.75;5.58;;;;;;;;;;1677063;85;21077;-71
2022/04/07 06:02:47;;;;;;;8.00;5.83;;;;;;;;;;1692531;85;21123;-70
2022/04/07 06:05:18;;;;;;;9.30;6.20;;;;;;;;;;1677117;85;21620;-70
2022/04/07 06:07:46;;;;;;;7.12;6.00;;;;;;;;;;1677278;85;21081;-71
2022/04/07 06:10:13;;;;;;;7.00;5.75;;;;;;;;;;1677033;85;21034;-70
2022/04/07 06:12:42;;;;;;;9.30;6.28;;;;;;;;;;1677231;85;21057;-71
2022/04/07 06:15:09;;;;;;;9.50;6.12;;;;;;;;;;1692704;85;21336;-70
2022/04/07 06:17:36;;;;;;;7.97;6.33;;;;;;;;;;1677057;85;21049;-70
2022/04/07 06:20:06;;;;;;;6.80;5.92;;;;;;;;;;1677294;85;21516;-70
2022/04/07 06:22:32;;;;;;;7.85;5.67;;;;;;;;;;1692619;85;21061;-70
2022/04/07 06:24:59;;;;;;;7.28;5.42;;;;;;;;;;1677163;85;21057;-70
2022/04/07 06:27:38;;;;;;;7.90;5.28;;;;;;;;;;1677169;85;21578;-69
2022/04/07 06:30:06;;;;;;;7.62;5.47;;;;;;;;;;1677282;85;21057;-69
2022/04/07 06:32:32;;;;;;;7.22;5.30;;;;;;;;;;1692601;85;21053;-69
2022/04/07 06:34:58;;;;;;;7.62;5.53;;;;;;;;;;1677223;85;21068;-69
2022/04/07 06:37:25;;;;;;;6.67;5.40;;;;;;;;;;1677033;85;21089;-69
2022/04/07 06:39:53;;;;;;;8.53;5.08;;;;;;;;;;1692121;83;21112;-69
2022/04/07 06:42:20;;;;;;;7.15;4.95;;;;;;;;;;1662182;86;21096;-69
2022/04/07 06:44:46;;;;;;;7.05;4.60;;;;;;;;;;1676942;85;21132;-69
2022/04/07 06:47:12;;;;;;;6.92;5.10;;;;;;;;;;1677336;85;21561;-69
2022/04/07 06:49:38;;;;;;;7.45;4.62;;;;;;;;;;1676925;85;21053;-69
2022/04/07 06:52:05;;;;;;;7.80;4.62;;;;;;;;;;1677012;85;21109;-70
2022/04/07 06:54:32;;;;;;;7.67;4.83;;;;;;;;;;1677180;85;21084;-69
2022/04/07 06:56:58;;;;;;;13.00;5.25;;;;;;;;;;1677069;85;21513;-71
2022/04/07 06:59:26;;;;;;;6.97;5.00;;;;;;;;;;1677147;85;21049;-71
2022/04/07 07:01:52;;;;;;;6.53;4.72;;;;;;;;;;1676988;85;21089;-71
2022/04/07 07:04:18;;;;;;;6.72;4.75;;;;;;;;;;1676883;84;21101;-71
2022/04/07 07:06:45;;;;;;;5.97;4.53;;;;;;;;;;1669526;85;21072;-70
2022/04/07 07:09:11;;;;;;;7.42;4.70;;;;;;;;;;1730621;83;21043;-69
2022/04/07 07:11:39;;;;;;;7.05;4.30;;;;;;;;;;1730682;83;22172;-69
2022/04/07 07:14:06;;;;;;;6.28;4.33;;;;;;;;;;1730728;83;21080;-70
2022/04/07 07:16:33;;;;;;;5.45;4.22;;;;;;;;;;1730900;83;21013;-70
2022/04/07 07:18:59;;;;;;;6.22;4.30;;;;;;;;;;1730461;83;21036;-69
2022/04/07 07:21:27;;;;;;;7.47;4.33;;;;;;;;;;1730406;83;21548;-71
2022/04/07 07:23:53;;;;;;;7.47;4.33;;;;;;;;;;1730921;83;21599;-70
2022/04/07 07:26:19;;;;;;;7.95;4.92;;;;;;;;;;1730647;83;21066;-71
2022/04/07 07:28:45;;;;;;;6.78;4.60;;;;;;;;;;1730988;83;21036;-71
2022/04/07 07:31:13;;;;;;;7.15;5.08;;;;;;;;;;1730526;83;21564;-71
2022/04/07 07:33:39;;;;;;;5.65;4.62;;;;;;;;;;1730712;83;21512;-70
2022/04/07 07:36:06;;;;;;;5.78;4.60;;;;;;;;;;1730586;82;21095;-70
2022/04/07 07:38:32;;;;;;;6.90;4.58;;;;;;;;;;1730663;83;21107;-71
2022/04/07 07:40:58;;;;;;;6.10;4.30;;;;;;;;;;1730742;82;21067;-71
2022/04/07 07:43:25;;;;;;;6.37;4.55;;;;;;;;;;1730696;83;21079;-69
2022/04/07 07:45:51;;;;;;;8.90;5.25;;;;;;;;;;1730788;82;21051;-69
2022/04/07 07:48:22;;;;;;;6.45;4.70;;;;;;;;;;1730776;83;21059;-70
2022/04/07 07:50:46;;;;;;;6.08;4.35;;;;;;;;;;1729822;83;21563;-70
2022/04/07 07:53:14;;;;;;;6.15;4.70;;;;;;;;;;1730638;82;21044;-70
2022/04/07 07:55:42;;;;;;;6.37;5.10;;;;;;;;;;1730392;82;21694;-70
2022/04/07 07:58:08;;;;;;;6.83;4.95;;;;;;;;;;1730773;83;21587;-71
2022/04/07 08:00:35;;;;;;;7.55;4.75;;;;;;;;;;1730463;83;21037;-70
2022/04/07 08:03:02;;;;;;;6.75;4.70;;;;;;;;;;1730569;81;21094;-71
2022/04/07 08:05:28;;;;;;;5.62;4.15;;;;;;;;;;1730037;82;21648;-70
2022/04/07 08:07:55;;;;;;;5.80;4.20;;;;;;;;;;1694485;84;21600;-71
2022/04/07 08:10:22;;;;;;;6.47;4.30;;;;;;;;;;1676821;85;21568;-70
2022/04/07 08:12:48;;;;;;;7.42;4.55;;;;;;;;;;1676968;85;21073;-70
2022/04/07 08:15:15;;;;;;;6.97;4.25;;;;;;;;;;1677165;85;21013;-70
2022/04/07 08:17:42;;;;;;;6.55;4.30;;;;;;;;;;1676985;85;21096;-70
2022/04/07 08:20:09;;;;;;;6.33;4.03;;;;;;;;;;1676995;85;21085;-70
2022/04/07 08:22:35;;;;;;;6.33;4.00;;;;;;;;;;1694504;85;21082;-70
2022/04/07 08:25:02;;;;;;;5.30;4.17;;;;;;;;;;1694328;85;21145;-70
2022/04/07 08:27:29;;;;;;;6.10;4.65;;;;;;;;;;1694524;85;21070;-71
2022/04/07 08:29:55;;;;;;;5.65;4.08;;;;;;;;;;1694382;85;21077;-71
2022/04/07 08:32:22;;;;;;;6.83;4.03;;;;;;;;;;1677009;85;21088;-70
2022/04/07 08:34:48;;;;;;;6.62;4.00;;;;;;;;;;1677011;85;21122;-71
2022/04/07 08:37:14;;;;;;;4.97;3.75;;;;;;;;;;1676980;85;21092;-71
2022/04/07 08:39:42;;;;;;;5.35;3.62;;;;;;;;;;1677222;85;21128;-71
2022/04/07 08:42:09;;;;;;;5.67;3.90;;;;;;;;;;1676951;85;21050;-70
2022/04/07 08:44:35;;;;;;;4.90;3.62;;;;;;;;;;1677224;85;21097;-69
2022/04/07 08:47:02;;;;;;;6.50;3.90;;;;;;;;;;1676902;85;21093;-70
2022/04/07 08:49:29;;;;;;;4.58;3.12;;;;;;;;;;1694539;85;21073;-69
2022/04/07 08:51:56;;;;;;;4.47;2.90;;;;;;;;;;1694616;85;21567;-69
2022/04/07 08:55:52;;;;;;;4.62;3.37;;;;;;;;;;1801115;79;23430;-71
2022/04/07 08:58:20;;;;;;;5.08;3.25;;;;;;;;;;1761814;81;21108;-71
2022/04/07 09:00:49;;;;;;;4.15;3.25;;;;;;;;;;1762029;81;21036;-71
2022/04/07 09:03:15;;;;;;;4.95;3.02;;;;;;;;;;1752540;81;21040;-71
2022/04/07 09:06:01;;;;;;;5.17;3.30;;;;;;;;;;1728169;83;21106;-71
2022/04/07 09:08:37;;;;;;;5.40;3.17;;;;;;;;;;1728363;83;21091;-71
2022/04/07 09:11:04;;;;;;;4.80;2.90;;;;;;;;;;1728343;83;21028;-71
2022/04/07 09:13:31;;;;;;;4.42;3.30;;;;;;;;;;1728124;83;21008;-71
2022/04/07 09:15:58;;;;;;;4.80;2.98;;;;;;;;;;1728293;83;21036;-71
2022/04/07 09:18:24;;;;;;;3.80;3.12;;;;;;;;;;1728061;83;21114;-71
2022/04/07 09:20:51;;;;;;;5.20;3.47;;;;;;;;;;1727876;83;21128;-70
2022/04/07 09:23:19;;;;;;;5.97;3.02;;;;;;;;;;1728338;83;20981;-71
2022/04/07 09:25:49;;;;;;;4.97;3.12;;;;;;;;;;1728029;83;21449;-71
2022/04/07 09:28:25;;;;;;;4.40;3.10;;;;;;;;;;1728291;83;21032;-71
2022/04/07 09:30:52;;;;;;;4.12;2.95;;;;;;;;;;1728022;83;21538;-71
2022/04/07 09:33:19;;;;;;;4.90;3.10;;;;;;;;;;1728319;83;21539;-69
2022/04/07 09:36:08;;;;;;;4.95;3.20;;;;;;;;;;1727793;83;21071;-70
2022/04/07 09:38:35;;;;;;;6.25;3.58;;;;;;;;;;1728119;83;21128;-71
2022/04/07 09:41:10;;;;;;;6.75;3.70;;;;;;;;;;1728233;83;21130;-71
2022/04/07 09:43:42;;;;;;;5.47;3.30;;;;;;;;;;1727720;82;21052;-71
2022/04/07 09:46:18;;;;;;;5.40;3.25;;;;;;;;;;1728413;83;21079;-71
2022/04/07 09:49:01;;;;;;;4.62;3.22;;;;;;;;;;1727367;83;21048;-71
2022/04/07 09:51:28;;;;;;;4.55;3.02;;;;;;;;;;1728478;83;21067;-70
2022/04/07 09:53:57;;;;;;;6.60;3.25;;;;;;;;;;1726626;83;21103;-70
2022/04/07 09:59:08;;;;;;;4.90;3.83;;;;;;;;;;1801764;79;22989;-70
2022/04/07 10:01:38;;;;;;;6.62;4.10;;;;;;;;;;1761437;81;21520;-70
2022/04/07 10:04:06;;;;;;;7.55;5.37;;;;;;;;;;1741217;81;21095;-70
2022/04/07 10:06:33;;;;;;;6.65;4.33;;;;;;;;;;1730138;82;21025;-70
2022/04/07 10:09:01;;;;;;;5.78;4.20;;;;;;;;;;1730022;83;21068;-70
2022/04/07 10:11:31;;;;;;;5.60;4.05;;;;;;;;;;1730096;83;21048;-71
2022/04/07 10:14:01;;;;;;;6.37;4.47;;;;;;;;;;1730067;82;21039;-71
2022/04/07 10:16:29;;;;;;;6.83;5.05;;;;;;;;;;1730050;83;21048;-71
2022/04/07 10:19:03;;;;;;;7.95;5.53;;;;;;;;;;1730074;82;20989;-69
2022/04/07 10:21:32;;;;;;;7.37;5.53;;;;;;;;;;1730253;83;21021;-70
2022/04/07 10:24:06;;;;;;;6.97;5.05;;;;;;;;;;1730053;82;21040;-70
2022/04/07 10:26:32;;;;;;;7.70;5.42;;;;;;;;;;1723093;83;21545;-70
2022/04/07 10:29:00;;;;;;;7.03;5.30;;;;;;;;;;1730286;82;21052;-70
2022/04/07 10:31:29;;;;;;;7.60;5.45;;;;;;;;;;1730137;82;21076;-70
2022/04/07 10:33:57;;;;;;;9.80;5.72;;;;;;;;;;1730349;82;21037;-70
2022/04/07 10:36:24;;;;;;;9.13;6.00;;;;;;;;;;1728862;82;21017;-70
2022/04/07 10:38:51;;;;;;;8.85;6.00;;;;;;;;;;1729843;82;21088;-70
2022/04/07 10:41:37;;;;;;;6.72;5.47;;;;;;;;;;1729921;83;21029;-70
2022/04/07 10:44:08;;;;;;;7.62;5.85;;;;;;;;;;1729953;83;21525;-70
2022/04/07 10:46:34;;;;;;;8.53;5.28;;;;;;;;;;1730014;83;21072;-70
2022/04/07 10:49:04;;;;;;;6.58;5.12;;;;;;;;;;1729782;83;21001;-70
2022/04/07 10:51:43;;;;;;;8.10;6.40;;;;;;;;;;1730067;83;21036;-71
2022/04/07 10:54:09;;;;;;;7.83;5.95;;;;;;;;;;1729983;82;21068;-70
2022/04/07 10:56:35;;;;;;;11.20;5.62;;;;;;;;;;1730146;82;21104;-71
2022/04/07 10:59:20;;;;;;;10.23;6.12;;;;;;;;;;1718844;83;21014;-71
2022/04/07 11:01:53;;;;;;;7.45;5.60;;;;;;;;;;1717643;83;21085;-71
2022/04/07 11:04:21;;;;;;;8.20;5.70;;;;;;;;;;1717297;82;21081;-69
2022/04/07 11:07:07;;;;;;;8.70;6.53;;;;;;;;;;1717304;83;21045;-69
2022/04/07 11:09:42;;;;;;;8.30;5.33;;;;;;;;;;1717005;83;21042;-70
2022/04/07 11:12:10;;;;;;;8.98;6.05;;;;;;;;;;1716810;83;21253;-70
2022/04/07 11:14:37;;;;;;;8.88;5.42;;;;;;;;;;1716900;83;21077;-70
2022/04/07 11:17:07;;;;;;;7.65;5.65;;;;;;;;;;1716883;83;21115;-70
2022/04/07 11:19:51;;;;;;;6.53;5.12;;;;;;;;;;1706514;83;21072;-70
2022/04/07 11:22:22;;;;;;;6.75;4.80;;;;;;;;;;1716643;83;21119;-69
2022/04/07 11:24:47;;;;;;;6.60;4.90;;;;;;;;;;1716763;83;21505;-69
2022/04/07 11:27:31;;;;;;;9.30;5.15;;;;;;;;;;1716659;83;21045;-69
2022/04/07 11:30:03;;;;;;;7.78;5.25;;;;;;;;;;1716929;83;21073;-70
2022/04/07 11:32:30;;;;;;;7.95;5.35;;;;;;;;;;1716490;83;22010;-70
2022/04/07 11:35:00;;;;;;;7.75;4.70;;;;;;;;;;1716782;83;21112;-69
2022/04/07 11:37:26;;;;;;;6.92;4.90;;;;;;;;;;1716822;83;21018;-70
2022/04/07 11:39:53;;;;;;;7.62;4.67;;;;;;;;;;1717015;83;21577;-70
2022/04/07 11:42:20;;;;;;;6.92;4.40;;;;;;;;;;1716848;83;21578;-69
2022/04/07 11:44:47;;;;;;;7.25;4.90;;;;;;;;;;1716840;83;21382;-70
2022/04/07 11:47:24;;;;;;;11.05;5.10;;;;;;;;;;1716951;83;21073;-69
2022/04/07 11:49:50;;;;;;;12.07;4.80;;;;;;;;;;1716893;83;21565;-69
2022/04/07 11:52:19;;;;;;;7.37;4.15;;;;;;;;;;1717172;83;21541;-70
2022/04/07 11:54:46;;;;;;;5.45;4.22;;;;;;;;;;1716765;83;21072;-69
2022/04/07 11:57:12;;;;;;;7.67;4.22;;;;;;;;;;1716870;83;21096;-69
2022/04/07 11:59:42;;;;;;;4.95;3.80;;;;;;;;;;1729616;82;21076;-70
2022/04/07 12:02:08;;;;;;;5.35;4.20;;;;;;;;;;1729489;83;21075;-70
2022/04/07 12:04:34;;;;;;;5.58;4.05;;;;;;;;;;1729751;81;21100;-69
2022/04/07 12:07:04;;;;;;;8.03;4.35;;;;;;;;;;1729322;82;21694;-69
2022/04/07 12:09:32;;;;;;;5.22;3.60;;;;;;;;;;1713746;83;21489;-69
2022/04/07 12:11:59;;;;;;;5.22;4.00;;;;;;;;;;1729414;82;21139;-69
2022/04/07 12:14:26;;;;;;;5.33;4.28;;;;;;;;;;1729625;82;21064;-69
2022/04/07 12:16:52;;;;;;;6.47;4.17;;;;;;;;;;1729623;82;21115;-70
2022/04/07 12:19:19;;;;;;;6.05;4.17;;;;;;;;;;1729612;83;21084;-70
2022/04/07 12:21:55;;;;;;;5.25;4.00;;;;;;;;;;1729710;83;21112;-70
2022/04/07 12:24:22;;;;;;;5.75;4.17;;;;;;;;;;1727721;83;21069;-70
2022/04/07 12:26:49;;;;;;;8.73;4.67;;;;;;;;;;1729745;82;21064;-70
2022/04/07 12:29:20;;;;;;;5.37;4.10;;;;;;;;;;1729714;82;21662;-70
2022/04/07 12:31:48;;;;;;;6.60;4.30;;;;;;;;;;1729419;82;21160;-70
2022/04/07 12:34:19;;;;;;;6.30;4.45;;;;;;;;;;1728844;82;21045;-70
2022/04/07 12:36:45;;;;;;;6.78;4.30;;;;;;;;;;1729523;83;21500;-70
2022/04/07 12:39:15;;;;;;;7.62;4.45;;;;;;;;;;1729783;82;21072;-70
2022/04/07 12:41:46;;;;;;;6.20;4.00;;;;;;;;;;1729643;83;21052;-70
2022/04/07 12:44:16;;;;;;;5.85;3.65;;;;;;;;;;1729692;82;21072;-70
2022/04/07 12:46:49;;;;;;;5.45;4.17;;;;;;;;;;1725927;83;21080;-70
2022/04/07 12:49:15;;;;;;;;;;;;;;;;;;1732376;82;21081;-70
2022/04/07 13:04:01;;;;;;;4.97;3.77;;;;;;;;;;1772426;80;23487;-70
2022/04/07 13:06:28;;;;;;;4.53;3.52;;;;;;;;;;1742286;82;21051;-70
2022/04/07 13:08:56;;;;;;;4.90;3.90;;;;;;;;;;1742626;81;21126;-70
2022/04/07 13:11:34;;;;;;;5.55;4.12;;;;;;;;;;1742481;82;21566;-70
2022/04/07 13:13:58;;;;;;;5.22;4.12;;;;;;;;;;1710547;84;21119;-70
2022/04/07 13:16:24;;;;;;;5.17;4.10;;;;;;;;;;1742260;82;21071;-70
2022/04/07 13:18:51;;;;;;;5.95;4.25;;;;;;;;;;1711247;84;21043;-70
2022/04/07 13:21:17;;;;;;;7.08;4.60;;;;;;;;;;1742319;82;21020;-71
2022/04/07 13:23:45;;;;;;;5.58;3.50;;;;;;;;;;1710827;84;21179;-72
2022/04/07 13:26:11;;;;;;;7.62;4.05;;;;;;;;;;1742379;82;21004;-70
2022/04/07 13:28:38;;;;;;;5.45;3.87;;;;;;;;;;1742347;81;21000;-70
2022/04/07 13:31:04;;;;;;;5.62;4.20;;;;;;;;;;1742344;82;21657;-70
2022/04/07 13:33:30;;;;;;;5.85;4.22;;;;;;;;;;1711033;84;21128;-70
2022/04/07 13:35:56;;;;;;;6.80;4.22;;;;;;;;;;1742401;82;21063;-71
2022/04/07 13:38:22;;;;;;;4.67;3.70;;;;;;;;;;1742283;81;21040;-70
2022/04/07 13:40:49;;;;;;;7.85;4.58;;;;;;;;;;1710911;84;21527;-70
2022/04/07 13:43:20;;;;;;;6.58;4.87;;;;;;;;;;1742268;82;21071;-70
2022/04/07 13:45:45;;;;;;;5.47;4.65;;;;;;;;;;1741302;80;21110;-70
2022/04/07 13:48:12;;;;;;;5.50;4.00;;;;;;;;;;1711220;83;21128;-71
2022/04/07 13:50:41;;;;;;;7.58;4.25;;;;;;;;;;1742167;82;21028;-71
2022/04/07 13:53:09;;;;;;;4.67;3.87;;;;;;;;;;1742287;81;21077;-71
2022/04/07 13:55:35;;;;;;;5.58;3.90;;;;;;;;;;1764669;81;21107;-69
2022/04/07 13:58:03;;;;;;;4.95;3.72;;;;;;;;;;1772726;81;21533;-72
2022/04/07 14:00:29;;;;;;;6.62;4.53;;;;;;;;;;1772879;81;21530;-71
2022/04/07 14:02:56;;;;;;;6.40;3.77;;;;;;;;;;1772502;80;21048;-72
2022/04/07 14:05:23;;;;;;;5.12;3.70;;;;;;;;;;1772371;81;21040;-71
2022/04/07 14:07:52;;;;;;;5.67;3.60;;;;;;;;;;1772091;81;21076;-71
2022/04/07 14:10:19;;;;;;;6.30;3.35;;;;;;;;;;1772183;80;21098;-71
2022/04/07 14:12:47;;;;;;;5.30;3.33;;;;;;;;;;1772238;81;21068;-71
2022/04/07 14:15:13;;;;;;;4.75;3.50;;;;;;;;;;1772157;80;21063;-71
2022/04/07 14:17:41;;;;;;;4.60;3.58;;;;;;;;;;1772336;80;21120;-70
2022/04/07 14:20:11;;;;;;;5.25;3.30;;;;;;;;;;1772034;80;21610;-71
2022/04/07 14:22:40;;;;;;;5.53;3.83;;;;;;;;;;1772387;80;21028;-71
2022/04/07 14:25:07;;;;;;;4.03;3.00;;;;;;;;;;1772302;80;21032;-69
2022/04/07 14:27:35;;;;;;;4.17;3.45;;;;;;;;;;1772609;81;21153;-71
2022/04/07 14:30:01;;;;;;;4.37;3.67;;;;;;;;;;1772427;81;21009;-70
2022/04/07 14:32:27;;;;;;;5.17;3.90;;;;;;;;;;1772563;80;21047;-70
2022/04/07 14:34:53;;;;;;;5.87;3.83;;;;;;;;;;1772239;81;21079;-71
2022/04/07 14:37:20;;;;;;;4.40;3.67;;;;;;;;;;1772531;81;21107;-70
2022/04/07 14:39:47;;;;;;;5.62;3.60;;;;;;;;;;1772239;80;21036;-70
2022/04/07 14:42:13;;;;;;;4.53;3.80;;;;;;;;;;1772214;80;21555;-70
2022/04/07 14:44:39;;;;;;;5.20;3.95;;;;;;;;;;1772172;81;21523;-70
2022/04/07 14:47:07;;;;;;;4.15;3.50;;;;;;;;;;1772060;81;21068;-69
2022/04/07 14:49:34;;;;;;;4.28;3.25;;;;;;;;;;1772006;80;21116;-70
2022/04/07 14:52:00;;;;;;;4.15;3.47;;;;;;;;;;1772377;81;21138;-70
2022/04/07 14:54:27;;;;;;;5.25;3.42;;;;;;;;;;1772099;81;21096;-71
2022/04/07 14:56:53;;;;;;;5.25;3.65;;;;;;;;;;1772301;80;21008;-70
2022/04/07 14:59:20;;;;;;;7.03;3.67;;;;;;;;;;1772133;81;21091;-71
2022/04/07 15:01:46;;;;;;;7.95;4.15;;;;;;;;;;1772028;81;21106;-71
2022/04/07 15:04:13;;;;;;;5.75;3.80;;;;;;;;;;1793810;80;21550;-71